createdAt,value
2023-01-17T00:00:19.667Z,81.68
2023-01-17T00:03:03.584Z,81.97
2023-01-17T00:06:01.601Z,81.93
2023-01-17T00:08:58.140Z,81.78
2023-01-17T00:11:45.984Z,81.97
2023-01-17T00:14:37.779Z,82.17
2023-01-17T00:17:19.803Z,81.99
2023-01-17T00:20:23.023Z,81.86
2023-01-17T00:24:14.711Z,81.79
2023-01-17T00:27:05.869Z,81.70
2023-01-17T00:29:41.018Z,82.02
2023-01-17T00:35:27.118Z,81.82
2023-01-17T00:38:25.401Z,82.22
2023-01-17T00:41:20.202Z,82.16
2023-01-17T00:51:57.685Z,81.96
2023-01-17T00:54:52.660Z,81.82
2023-01-17T00:57:47.560Z,81.97
2023-01-17T01:00:47.598Z,81.93
2023-01-17T01:03:58.127Z,82.13
2023-01-17T01:07:52.091Z,82.08
2023-01-17T01:10:55.978Z,82.11
2023-01-17T01:17:02.983Z,82.49
2023-01-17T01:20:02.753Z,82.42
2023-01-17T01:23:00.889Z,82.41
2023-01-17T01:25:50.963Z,82.17
2023-01-17T01:28:42.511Z,82.43
2023-01-17T01:31:33.384Z,82.37
2023-01-17T01:34:08.165Z,82.10
2023-01-17T01:36:46.691Z,82.09
2023-01-17T01:39:26.100Z,82.00
2023-01-17T01:42:03.051Z,81.56
2023-01-17T01:44:56.172Z,81.90
2023-01-17T01:47:35.902Z,81.70
2023-01-17T01:50:15.325Z,81.83
2023-01-17T01:52:50.858Z,81.30
2023-01-17T01:55:47.666Z,81.37
2023-01-17T01:58:44.009Z,81.44
2023-01-17T02:01:22.586Z,81.37
2023-01-17T02:04:00.078Z,80.92
2023-01-17T02:06:34.740Z,81.47
2023-01-17T02:09:21.620Z,81.58
2023-01-17T02:11:54.217Z,81.52
2023-01-17T02:14:31.202Z,81.56
2023-01-17T02:17:43.787Z,81.44
2023-01-17T02:25:18.475Z,81.82
2023-01-17T02:28:30.886Z,81.94
2023-01-17T02:31:35.256Z,81.77
2023-01-17T02:34:14.809Z,81.80
2023-01-17T02:37:22.243Z,81.72
2023-01-17T02:40:08.022Z,82.13
2023-01-17T02:42:47.468Z,81.28
2023-01-17T02:45:25.732Z,82.10
2023-01-17T02:47:58.274Z,82.27
2023-01-17T02:51:03.484Z,82.10
2023-01-17T02:53:53.428Z,82.17
2023-01-17T02:56:38.861Z,82.33
2023-01-17T02:59:24.749Z,82.25
2023-01-17T03:02:07.535Z,82.09
2023-01-17T03:04:56.390Z,82.09
2023-01-17T03:07:32.430Z,81.77
2023-01-17T03:10:09.772Z,81.56
2023-01-17T03:12:44.088Z,81.29
2023-01-17T03:15:22.132Z,81.42
2023-01-17T03:17:56.962Z,81.64
2023-01-17T03:20:29.032Z,81.86
2023-01-17T03:23:00.359Z,81.99
2023-01-17T03:25:32.922Z,81.98
2023-01-17T03:28:03.514Z,82.28
2023-01-17T03:30:36.439Z,82.26
2023-01-17T03:33:08.428Z,81.95
2023-01-17T03:35:38.806Z,82.00
2023-01-17T03:38:10.303Z,81.97
2023-01-17T03:40:45.519Z,82.05
2023-01-17T03:43:16.591Z,82.21
2023-01-17T03:45:51.209Z,82.40
2023-01-17T03:48:23.985Z,82.48
2023-01-17T03:50:56.107Z,82.52
2023-01-17T03:53:27.218Z,82.46
2023-01-17T03:55:59.142Z,82.45
2023-01-17T03:58:30.125Z,82.28
2023-01-17T04:01:02.265Z,82.39
2023-01-17T04:03:33.899Z,82.69
2023-01-17T04:06:04.966Z,82.73
2023-01-17T04:08:35.174Z,82.63
2023-01-17T04:11:06.453Z,82.66
2023-01-17T04:13:37.964Z,82.65
2023-01-17T04:16:17.616Z,82.83
2023-01-17T04:18:49.494Z,82.64
2023-01-17T04:21:19.712Z,82.80
2023-01-17T04:23:51.028Z,82.74
2023-01-17T04:26:21.544Z,82.65
2023-01-17T04:28:53.062Z,82.67
2023-01-17T04:31:24.941Z,82.93
2023-01-17T04:33:58.094Z,82.94
2023-01-17T04:36:29.565Z,82.89
2023-01-17T04:39:00.579Z,82.54
2023-01-17T04:41:31.297Z,82.63
2023-01-17T04:44:04.397Z,82.71
2023-01-17T04:46:42.964Z,82.79
2023-01-17T04:49:38.726Z,82.75
2023-01-17T04:55:08.052Z,82.95
2023-01-17T04:57:43.689Z,83.04
2023-01-17T05:00:17.741Z,82.93
2023-01-17T05:02:49.586Z,83.15
2023-01-17T05:05:22.524Z,83.31
2023-01-17T05:08:00.388Z,83.40
2023-01-17T05:10:32.715Z,83.31
2023-01-17T05:13:05.049Z,83.29
2023-01-17T05:15:35.352Z,83.24
2023-01-17T05:18:11.244Z,83.21
2023-01-17T05:20:41.456Z,83.31
2023-01-17T05:23:11.823Z,83.12
2023-01-17T05:25:45.628Z,82.99
2023-01-17T05:28:16.257Z,83.05
2023-01-17T05:30:47.038Z,83.02
2023-01-17T05:33:18.561Z,83.13
2023-01-17T05:35:48.775Z,83.43
2023-01-17T05:38:20.352Z,83.26
2023-01-17T05:40:51.589Z,83.32
2023-01-17T05:43:23.097Z,83.41
2023-01-17T05:45:54.347Z,83.23
2023-01-17T05:48:26.230Z,83.31
2023-01-17T05:50:57.612Z,83.16
2023-01-17T05:53:30.907Z,83.24
2023-01-17T05:56:03.926Z,83.03
2023-01-17T05:58:34.855Z,83.47
2023-01-17T06:01:06.035Z,83.16
2023-01-17T06:03:38.405Z,82.97
2023-01-17T06:06:09.752Z,82.90
2023-01-17T06:08:40.479Z,82.92
2023-01-17T06:11:11.384Z,83.26
2023-01-17T06:13:44.291Z,83.11
2023-01-17T06:16:17.398Z,82.97
2023-01-17T06:18:48.448Z,83.17
2023-01-17T06:21:19.546Z,83.19
2023-01-17T06:23:49.563Z,83.14
2023-01-17T06:26:22.335Z,83.31
2023-01-17T06:28:53.483Z,83.18
2023-01-17T06:31:24.581Z,83.00
2023-01-17T06:33:55.639Z,83.09
2023-01-17T06:36:30.376Z,83.34
2023-01-17T06:39:03.972Z,83.01
2023-01-17T06:41:35.686Z,83.32
2023-01-17T06:44:06.463Z,83.25
2023-01-17T06:46:38.043Z,82.98
2023-01-17T06:49:10.118Z,82.94
2023-01-17T06:51:43.783Z,83.33
2023-01-17T06:54:14.485Z,83.29
2023-01-17T06:56:44.725Z,83.02
2023-01-17T06:59:16.136Z,83.51
2023-01-17T07:01:47.606Z,82.99
2023-01-17T07:04:19.100Z,83.18
2023-01-17T07:06:50.842Z,82.79
2023-01-17T07:09:21.758Z,83.18
2023-01-17T07:11:55.894Z,83.12
2023-01-17T07:14:26.109Z,83.00
2023-01-17T07:16:57.385Z,83.06
2023-01-17T07:19:34.484Z,83.38
2023-01-17T07:22:04.919Z,83.22
2023-01-17T07:24:37.994Z,83.18
2023-01-17T07:27:10.661Z,83.38
2023-01-17T07:29:41.882Z,84.27
2023-01-17T07:32:13.220Z,85.02
2023-01-17T07:34:50.257Z,85.49
2023-01-17T07:37:22.779Z,85.32
2023-01-17T07:39:53.691Z,85.94
2023-01-17T07:42:25.735Z,85.51
2023-01-17T07:44:57.185Z,85.89
2023-01-17T07:47:27.682Z,85.84
2023-01-17T07:49:58.521Z,85.67
2023-01-17T07:52:30.974Z,85.11
2023-01-17T07:55:02.477Z,84.81
2023-01-17T07:57:36.932Z,85.05
2023-01-17T08:00:09.126Z,85.79
2023-01-17T08:02:43.221Z,84.62
2023-01-17T08:05:18.240Z,84.53
2023-01-17T08:07:49.414Z,84.11
2023-01-17T08:10:22.557Z,83.77
2023-01-17T08:12:55.068Z,83.93
2023-01-17T08:15:28.619Z,85.40
2023-01-17T08:18:00.921Z,84.76
2023-01-17T08:20:31.841Z,84.35
2023-01-17T08:23:02.425Z,84.48
2023-01-17T08:25:35.372Z,84.47
2023-01-17T08:28:06.985Z,84.76
2023-01-17T08:30:38.620Z,85.49
2023-01-17T08:33:09.424Z,86.34
2023-01-17T08:35:43.953Z,86.11
2023-01-17T08:38:15.595Z,86.44
2023-01-17T08:40:46.562Z,86.63
2023-01-17T08:43:21.148Z,86.26
2023-01-17T08:45:57.986Z,86.19
2023-01-17T08:48:29.286Z,85.00
2023-01-17T08:51:04.918Z,85.32
2023-01-17T08:53:35.834Z,85.44
2023-01-17T08:56:10.756Z,85.96
2023-01-17T08:58:43.592Z,85.44
2023-01-17T09:01:15.382Z,84.66
2023-01-17T09:03:47.822Z,85.08
2023-01-17T09:06:19.576Z,84.66
2023-01-17T09:08:52.604Z,83.94
2023-01-17T09:11:22.851Z,85.04
2023-01-17T09:13:53.461Z,84.25
2023-01-17T09:16:24.225Z,84.36
2023-01-17T09:19:00.061Z,84.17
2023-01-17T09:21:31.952Z,83.98
2023-01-17T09:24:04.241Z,84.39
2023-01-17T09:26:35.640Z,83.31
2023-01-17T09:29:07.541Z,83.13
2023-01-17T09:31:39.142Z,82.87
2023-01-17T09:34:10.744Z,82.96
2023-01-17T09:36:43.891Z,83.01
2023-01-17T09:39:17.300Z,83.33
2023-01-17T09:41:53.841Z,83.30
2023-01-17T09:44:33.352Z,83.27
2023-01-17T09:47:39.252Z,82.64
2023-01-17T09:50:38.660Z,82.67
2023-01-17T09:53:18.515Z,82.27
2023-01-17T09:56:04.470Z,82.35
2023-01-17T09:59:19.220Z,82.08
2023-01-17T10:02:11.825Z,81.41
2023-01-17T10:04:50.686Z,82.11
2023-01-17T10:07:41.466Z,82.13
2023-01-17T10:10:31.910Z,79.97
2023-01-17T10:13:30.562Z,66.91
2023-01-17T10:16:25.248Z,61.06
2023-01-17T10:19:15.364Z,58.76
2023-01-17T10:22:01.324Z,57.70
2023-01-17T10:25:17.653Z,57.67
2023-01-17T10:28:07.959Z,56.49
2023-01-17T10:30:53.115Z,57.48
2023-01-17T10:33:34.102Z,58.50
2023-01-17T10:39:42.991Z,62.80
2023-01-17T10:42:47.513Z,62.20
2023-01-17T10:45:32.203Z,61.88
2023-01-17T10:48:25.895Z,61.98
2023-01-17T10:51:25.497Z,61.71
2023-01-17T10:54:24.332Z,61.15
2023-01-17T10:56:55.227Z,60.87
2023-01-17T10:59:35.961Z,62.13
2023-01-17T11:02:28.862Z,61.86
2023-01-17T11:05:05.597Z,60.35
2023-01-17T11:07:37.687Z,61.28
2023-01-17T11:10:42.536Z,62.64
2023-01-17T11:16:34.585Z,61.25
2023-01-17T11:22:38.759Z,63.17
2023-01-17T11:25:21.017Z,63.91
2023-01-17T11:28:33.841Z,64.40
2023-01-17T11:31:10.285Z,63.26
2023-01-17T11:36:46.459Z,61.81
2023-01-17T11:39:20.337Z,63.32
2023-01-17T11:41:56.626Z,64.11
2023-01-17T11:44:46.170Z,63.91
2023-01-17T11:47:24.808Z,63.14
2023-01-17T11:50:05.922Z,61.70
2023-01-17T11:52:47.539Z,61.07
2023-01-17T11:55:36.907Z,60.37
2023-01-17T11:58:22.538Z,59.88
2023-01-17T12:01:34.594Z,59.41
2023-01-17T12:04:15.587Z,58.30
2023-01-17T12:07:22.972Z,58.82
2023-01-17T12:10:37.062Z,57.87
2023-01-17T12:14:05.494Z,57.76
2023-01-17T12:17:18.900Z,64.85
2023-01-17T12:20:05.354Z,65.41
2023-01-17T12:22:53.913Z,67.86
2023-01-17T12:25:47.887Z,67.75
2023-01-17T12:28:57.103Z,68.74
2023-01-17T12:31:38.582Z,68.82
2023-01-17T12:34:31.467Z,69.37
2023-01-17T12:38:03.765Z,68.68
2023-01-17T12:40:58.262Z,68.68
2023-01-17T12:43:52.605Z,67.78
2023-01-17T12:47:30.445Z,68.51
2023-01-17T12:50:42.993Z,68.51
2023-01-17T12:54:13.645Z,68.60
2023-01-17T12:57:45.860Z,67.57
2023-01-17T13:04:15.417Z,68.02
2023-01-17T13:17:41.265Z,67.42
2023-01-17T13:28:06.825Z,66.46
2023-01-17T13:30:57.200Z,66.37
2023-01-17T13:33:38.002Z,68.08
2023-01-17T13:36:44.336Z,66.36
2023-01-17T13:39:39.523Z,65.83
2023-01-17T13:42:27.839Z,66.51
2023-01-17T13:44:59.566Z,66.31
2023-01-17T13:47:30.772Z,66.68
2023-01-17T13:50:01.815Z,66.92
2023-01-17T13:52:36.947Z,66.02
2023-01-17T13:55:08.606Z,67.29
2023-01-17T13:57:48.120Z,67.62
2023-01-17T14:00:23.843Z,67.32
2023-01-17T14:02:55.590Z,66.37
2023-01-17T14:05:32.929Z,67.24
2023-01-17T14:08:21.964Z,67.99
2023-01-17T14:10:56.429Z,67.45
2023-01-17T14:16:34.379Z,68.00
2023-01-17T14:19:05.813Z,68.13
2023-01-17T14:21:37.090Z,68.70
2023-01-17T14:24:14.648Z,68.57
2023-01-17T14:26:49.178Z,68.30
2023-01-17T14:30:00.287Z,68.49
2023-01-17T14:32:36.906Z,68.77
2023-01-17T14:35:07.973Z,68.93
2023-01-17T14:37:42.542Z,69.70
2023-01-17T14:40:22.086Z,70.15
2023-01-17T14:42:58.330Z,69.30
2023-01-17T14:45:33.221Z,69.40
2023-01-17T14:48:07.657Z,66.98
2023-01-17T14:50:44.973Z,66.85
2023-01-17T14:53:15.271Z,68.65
2023-01-17T14:55:53.873Z,69.26
2023-01-17T14:58:35.094Z,71.29
2023-01-17T15:01:20.729Z,71.06
2023-01-17T15:04:00.963Z,71.36
2023-01-17T15:06:44.617Z,71.83
2023-01-17T15:09:21.295Z,73.52
2023-01-17T15:11:53.897Z,72.66
2023-01-17T15:14:38.068Z,72.31
2023-01-17T15:17:17.974Z,72.37
2023-01-17T15:19:54.404Z,71.22
2023-01-17T15:22:27.905Z,71.25
2023-01-17T15:24:59.930Z,70.80
2023-01-17T15:27:30.405Z,71.13
2023-01-17T15:30:03.319Z,71.07
2023-01-17T15:32:33.966Z,71.98
2023-01-17T15:35:09.335Z,71.89
2023-01-17T15:37:41.425Z,71.75
2023-01-17T15:40:25.200Z,71.90
2023-01-17T15:43:03.895Z,71.58
2023-01-17T15:45:35.381Z,72.63
2023-01-17T15:48:35.065Z,72.11
2023-01-17T15:51:05.382Z,72.08
2023-01-17T15:53:40.195Z,72.60
2023-01-17T15:56:33.965Z,72.14
2023-01-17T15:59:30.855Z,71.57
2023-01-17T16:02:02.424Z,71.77
2023-01-17T16:04:38.681Z,70.65
2023-01-17T16:07:23.102Z,70.41
2023-01-17T16:09:53.665Z,69.30
2023-01-17T16:12:24.927Z,70.01
2023-01-17T16:15:11.266Z,69.92
2023-01-17T16:17:47.656Z,70.57
2023-01-17T16:20:27.470Z,69.99
2023-01-17T16:22:59.636Z,69.69
2023-01-17T16:25:35.035Z,70.83
2023-01-17T16:28:05.641Z,70.24
2023-01-17T16:30:36.879Z,70.51
2023-01-17T16:33:14.122Z,68.79
2023-01-17T16:35:44.692Z,68.60
2023-01-17T16:38:21.929Z,68.61
2023-01-17T16:40:53.239Z,67.66
2023-01-17T16:43:24.164Z,68.03
2023-01-17T16:45:56.103Z,66.65
2023-01-17T16:48:27.727Z,66.67
2023-01-17T16:50:58.838Z,66.72
2023-01-17T16:53:30.025Z,66.58
2023-01-17T16:56:07.915Z,66.26
2023-01-17T16:58:38.842Z,67.73
2023-01-17T17:01:18.725Z,68.02
2023-01-17T17:03:49.058Z,67.15
2023-01-17T17:06:19.370Z,67.05
2023-01-17T17:08:50.568Z,66.80
2023-01-17T17:11:24.200Z,67.45
2023-01-17T17:16:38.592Z,65.33
2023-01-17T17:19:10.950Z,65.88
2023-01-17T17:21:42.923Z,64.73
2023-01-17T17:24:19.370Z,65.38
2023-01-17T17:26:49.879Z,66.07
2023-01-17T17:29:22.527Z,66.22
2023-01-17T17:31:53.543Z,66.35
2023-01-17T17:34:28.227Z,65.91
2023-01-17T17:36:59.437Z,67.02
2023-01-17T17:39:30.617Z,67.24
2023-01-17T17:42:01.037Z,67.42
2023-01-17T17:44:31.813Z,68.02
2023-01-17T17:47:29.759Z,68.06
2023-01-17T17:50:02.228Z,68.29
2023-01-17T17:52:33.830Z,67.45
2023-01-17T17:55:04.155Z,67.58
2023-01-17T17:57:34.262Z,68.13
2023-01-17T18:00:06.580Z,68.42
2023-01-17T18:02:36.567Z,68.91
2023-01-17T18:05:08.678Z,69.27
2023-01-17T18:07:38.727Z,69.34
2023-01-17T18:10:11.231Z,69.14
2023-01-17T18:12:41.553Z,70.10
2023-01-17T18:15:13.514Z,70.56
2023-01-17T18:17:46.638Z,69.44
2023-01-17T18:20:17.326Z,69.43
2023-01-17T18:22:50.569Z,70.21
2023-01-17T18:25:22.712Z,69.77
2023-01-17T18:27:53.493Z,69.12
2023-01-17T18:30:24.390Z,69.63
2023-01-17T18:32:58.056Z,69.00
2023-01-17T18:35:29.503Z,69.07
2023-01-17T18:38:00.361Z,68.80
2023-01-17T18:40:30.370Z,69.27
2023-01-17T18:43:01.851Z,70.15
2023-01-17T18:45:32.587Z,71.33
2023-01-17T18:48:06.163Z,71.47
2023-01-17T18:50:36.756Z,71.19
2023-01-17T18:53:07.558Z,70.99
2023-01-17T18:55:38.903Z,71.84
2023-01-17T18:58:10.678Z,71.67
2023-01-17T19:00:41.842Z,71.24
2023-01-17T19:03:12.577Z,71.21
2023-01-17T19:05:44.017Z,71.00
2023-01-17T19:08:15.099Z,71.00
2023-01-17T19:10:45.726Z,70.20
2023-01-17T19:13:16.402Z,71.11
2023-01-17T19:15:47.361Z,70.19
2023-01-17T19:18:17.877Z,70.59
2023-01-17T19:20:48.441Z,70.67
2023-01-17T19:23:18.494Z,70.43
2023-01-17T19:25:54.029Z,69.83
2023-01-17T19:28:24.510Z,70.00
2023-01-17T19:31:05.307Z,70.10
2023-01-17T19:33:37.568Z,70.66
2023-01-17T19:36:11.363Z,71.61
2023-01-17T19:38:49.437Z,71.21
2023-01-17T19:41:29.311Z,71.17
2023-01-17T19:44:02.320Z,71.64
2023-01-17T19:46:35.197Z,71.07
2023-01-17T19:49:10.073Z,71.09
2023-01-17T19:51:42.002Z,71.40
2023-01-17T19:54:15.780Z,71.56
2023-01-17T19:56:46.919Z,70.71
2023-01-17T19:59:21.133Z,70.62
2023-01-17T20:01:52.791Z,70.22
2023-01-17T20:04:24.937Z,70.22
2023-01-17T20:06:56.382Z,71.68
2023-01-17T20:09:29.092Z,71.90
2023-01-17T20:12:00.824Z,71.90
2023-01-17T20:14:31.185Z,72.88
2023-01-17T20:17:02.029Z,72.53
2023-01-17T20:19:33.801Z,72.79
2023-01-17T20:22:11.026Z,72.73
2023-01-17T20:24:41.247Z,73.04
2023-01-17T20:27:11.565Z,73.61
2023-01-17T20:29:43.515Z,72.73
2023-01-17T20:32:21.312Z,72.92
2023-01-17T20:34:52.784Z,72.83
2023-01-17T20:37:23.859Z,72.76
2023-01-17T20:39:56.172Z,73.35
2023-01-17T20:42:29.855Z,74.05
2023-01-17T20:45:01.477Z,74.09
2023-01-17T20:47:34.083Z,74.80
2023-01-17T20:50:08.344Z,74.41
2023-01-17T20:52:45.698Z,74.78
2023-01-17T20:55:17.626Z,74.74
2023-01-17T20:57:50.080Z,74.53
2023-01-17T21:00:23.502Z,74.80
2023-01-17T21:02:55.977Z,75.36
2023-01-17T21:05:27.679Z,75.86
2023-01-17T21:08:01.595Z,76.28
2023-01-17T21:10:32.806Z,77.00
2023-01-17T21:13:04.205Z,77.18
2023-01-17T21:15:36.892Z,77.20
2023-01-17T21:18:07.291Z,77.69
2023-01-17T21:20:38.415Z,77.91
2023-01-17T21:23:10.323Z,78.37
2023-01-17T21:25:41.042Z,77.88
2023-01-17T21:28:12.797Z,77.09
2023-01-17T21:30:44.648Z,77.07
2023-01-17T21:33:14.861Z,77.15
2023-01-17T21:35:46.361Z,78.29
2023-01-17T21:38:18.058Z,78.70
2023-01-17T21:40:50.670Z,78.73
2023-01-17T21:43:21.066Z,78.95
2023-01-17T21:45:53.377Z,78.66
2023-01-17T21:48:26.105Z,78.85
2023-01-17T21:50:57.892Z,78.23
2023-01-17T21:53:29.795Z,78.71
2023-01-17T21:56:23.144Z,77.76
2023-01-17T21:58:58.163Z,77.26
2023-01-17T22:01:32.709Z,77.06
2023-01-17T22:04:05.995Z,76.81
2023-01-17T22:06:40.510Z,77.03
2023-01-17T22:09:11.920Z,76.74
2023-01-17T22:11:42.411Z,76.83
2023-01-17T22:14:15.939Z,76.98
2023-01-17T22:16:48.315Z,76.98
2023-01-17T22:19:28.048Z,77.24
2023-01-17T22:21:59.082Z,77.37
2023-01-17T22:24:32.685Z,77.58
2023-01-17T22:27:06.112Z,77.98
2023-01-17T22:29:39.383Z,77.79
2023-01-17T22:32:10.377Z,77.74
2023-01-17T22:34:40.597Z,77.82
2023-01-17T22:37:11.565Z,77.57
2023-01-17T22:39:44.538Z,77.18
2023-01-17T22:42:17.309Z,77.73
2023-01-17T22:44:50.343Z,78.01
2023-01-17T22:47:24.124Z,77.16
2023-01-17T22:49:56.295Z,77.69
2023-01-17T22:52:26.909Z,77.69
2023-01-17T22:54:59.585Z,77.90
2023-01-17T22:57:30.128Z,78.02
2023-01-17T23:00:00.312Z,78.33
2023-01-17T23:02:30.383Z,78.14
2023-01-17T23:05:00.654Z,77.80
2023-01-17T23:07:45.023Z,78.28
2023-01-17T23:10:35.939Z,77.68
2023-01-17T23:13:10.487Z,78.51
2023-01-17T23:15:58.608Z,78.38
2023-01-17T23:18:48.039Z,78.60
2023-01-17T23:21:18.337Z,78.30
2023-01-17T23:23:49.048Z,78.63
2023-01-17T23:26:20.048Z,78.72
2023-01-17T23:28:51.108Z,79.00
2023-01-17T23:31:21.363Z,78.38
2023-01-17T23:33:51.376Z,78.80
2023-01-17T23:36:21.619Z,78.70
2023-01-17T23:38:51.615Z,79.01
2023-01-17T23:41:40.922Z,78.66
2023-01-17T23:44:11.910Z,78.48
2023-01-17T23:46:42.141Z,78.50
2023-01-17T23:49:13.002Z,78.32
2023-01-17T23:51:46.431Z,78.38
2023-01-17T23:54:17.575Z,78.12
2023-01-17T23:56:50.755Z,78.15
2023-01-17T23:59:21.729Z,78.63
